Time,TemperatureF,DewpointF,PressureIn,WindDirection,WindDirectionDegrees,WindSpeedMPH,WindSpeedGustMPH,Humidity,HourlyPrecipIn,Conditions,Clouds,dailyrainin,SoftwareType,DateUTC
2013-06-24 00:00:00,62.8,42.8,30.58,South,176,8.0,8.0,47,0.00,RA,OVC,0.00,Misterhouse,2013-06-24 07:00:00,
2013-06-24 00:05:00,62.8,42.8,30.58,SW,218,6.0,8.0,47,0.00,RA,OVC,0.00,Misterhouse,2013-06-24 07:05:00,
2013-06-24 00:10:00,62.8,42.8,30.58,WSW,239,6.0,8.0,48,0.00,RA,OVC,0.00,Misterhouse,2013-06-24 07:10:00,
2013-06-24 00:15:00,62.8,42.8,30.58,SSW,213,9.0,9.0,49,0.00,RA,OVC,0.00,Misterhouse,2013-06-24 07:15:00,
2013-06-24 00:20:00,62.8,42.8,30.58,South,191,8.0,8.0,50,0.00,RA,OVC,0.00,Misterhouse,2013-06-24 07:20:00,
2013-06-24 00:25:00,62.6,44.6,30.58,WSW,249,7.0,7.0,53,0.00,RA,OVC,0.00,Misterhouse,2013-06-24 07:25:00,
2013-06-24 00:35:00,62.6,46.4,30.58,SW,218,9.0,9.0,55,0.00,RA,OVC,0.00,Misterhouse,2013-06-24 07:35:00,
2013-06-24 00:45:00,62.4,48.2,30.58,WSW,245,9.0,9.0,60,0.00,RA,OVC,0.00,Misterhouse,2013-06-24 07:45:00,
2013-06-24 00:50:00,62.4,48.2,30.58,SW,218,5.0,5.0,60,0.00,RA,OVC,0.00,Misterhouse,2013-06-24 07:50:00,
2013-06-24 01:00:00,62.2,50.0,30.58,WSW,240,6.0,6.0,64,0.00,RA,OVC,0.00,Misterhouse,2013-06-24 08:00:00,
2013-06-24 01:05:00,62.2,51.8,30.58,South,187,5.0,8.0,66,0.00,RA,OVC,0.00,Misterhouse,2013-06-24 08:05:00,
2013-06-24 01:10:00,62.6,51.8,30.58,SSW,197,8.0,8.0,68,0.00,RA,OVC,0.00,Misterhouse,2013-06-24 08:10:00,
2013-06-24 01:20:00,63.1,53.6,30.58,SSW,196,6.0,8.0,71,0.00,RA,OVC,0.00,Misterhouse,2013-06-24 08:20:00,
2013-06-24 01:25:00,63.3,53.6,30.58,South,169,4.0,10.0,73,0.00,RA,OVC,0.00,Misterhouse,2013-06-24 08:25:00,
2013-06-24 01:30:00,64.4,57.2,30.58,SSW,210,4.0,8.0,77,0.00,RA,OVC,0.00,Misterhouse,2013-06-24 08:30:00,
2013-06-24 01:35:00,64.6,57.2,30.58,South,171,7.0,8.0,78,0.00,RA,OVC,0.00,Misterhouse,2013-06-24 08:35:00,
2013-06-24 01:45:00,64.9,57.2,30.58,SSW,194,6.0,6.0,79,0.00,RA,OVC,0.00,Misterhouse,2013-06-24 08:45:00,
2013-06-24 01:50:00,64.6,57.2,30.58,SSW,206,7.0,7.0,77,0.00,RA,OVC,0.00,Misterhouse,2013-06-24 08:50:00,
2013-06-24 01:55:00,64.4,57.2,30.58,SW,233,4.0,8.0,75,0.00,RA,OVC,0.00,Misterhouse,2013-06-24 08:55:00,
2013-06-24 01:58:00,62.4,50.0,30.58,West,262,5.0,5.0,62,0.00,RA,OVC,0.00,Misterhouse,2013-06-24 08:58:00,
2013-06-24 02:05:00,64.4,57.2,30.58,SSE,160,8.0,8.0,78,0.00,RA,OVC,0.00,Misterhouse,2013-06-24 09:05:00,
2013-06-24 02:15:00,63.3,53.6,30.58,WSW,247,8.0,11.0,74,0.00,RA,OVC,0.00,Misterhouse,2013-06-24 09:15:00,
2013-06-24 02:18:00,62.6,51.8,30.58,WSW,241,5.0,5.0,68,0.00,RA,OVC,0.00,Misterhouse,2013-06-24 09:18:00,
2013-06-24 02:30:00,62.2,53.6,30.58,SW,224,4.0,5.0,70,0.00,RA,OVC,0.00,Misterhouse,2013-06-24 09:30:00,
2013-06-24 02:35:00,62.1,51.8,30.58,SE,144,4.0,10.0,69,0.00,RA,OVC,0.00,Misterhouse,2013-06-24 09:35:00,
2013-06-24 02:40:00,61.5,48.2,30.58,SSW,198,8.0,11.0,64,0.00,RA,OVC,0.00,Misterhouse,2013-06-24 09:40:00,
2013-06-24 02:45:00,61.0,46.4,30.58,SW,222,7.0,8.0,59,0.00,RA,OVC,0.00,Misterhouse,2013-06-24 09:45:00,
2013-06-24 02:55:00,60.6,44.6,30.58,WSW,251,10.0,10.0,54,0.00,RA,OVC,0.00,Misterhouse,2013-06-24 09:55:00,
2013-06-24 03:05:00,60.8,46.4,30.58,SW,224,7.0,7.0,58,0.00,RA,OVC,0.00,Misterhouse,2013-06-24 10:05:00,
2013-06-24 03:10:00,61.0,46.4,30.58,South,187,9.0,9.0,61,0.00,RA,OVC,0.00,Misterhouse,2013-06-24 10:10:00,
2013-06-24 03:12:00,64.4,57.2,30.58,West,265,7.0,7.0,79,0.00,RA,OVC,0.00,Misterhouse,2013-06-24 10:12:00,
2013-06-24 03:15:00,61.3,48.2,30.58,SSW,200,9.0,9.0,63,0.00,RA,OVC,0.00,Misterhouse,2013-06-24 10:15:00,
2013-06-24 03:25:00,61.3,48.2,30.58,SSW,198,7.0,9.0,65,0.00,RA,OVC,0.00,Misterhouse,2013-06-24 10:25:00,
2013-06-24 03:27:00,62.4,53.6,30.58,SSW,197,6.0,6.0,70,0.00,RA,OVC,0.00,Misterhouse,2013-06-24 10:27:00,
2013-06-24 03:30:00,61.5,48.2,30.58,SSW,203,5.0,13.0,65,0.00,RA,OVC,0.00,Misterhouse,2013-06-24 10:30:00,
2013-06-24 03:52:00,60.6,44.6,30.58,SW,214,10.0,10.0,55,0.00,RA,OVC,0.00,Misterhouse,2013-06-24 10:52:00,
2013-06-24 03:55:00,60.8,46.4,30.58,SSW,207,8.0,8.0,58,0.00,RA,OVC,0.00,Misterhouse,2013-06-24 10:55:00,
2013-06-24 04:02:00,60.6,44.6,30.58,South,182,11.0,11.0,55,0.00,RA,OVC,0.00,Misterhouse,2013-06-24 11:02:00,
2013-06-24 04:10:00,60.4,46.4,30.58,SSW,197,9.0,9.0,60,0.00,RA,OVC,0.00,Misterhouse,2013-06-24 11:10:00,
2013-06-24 04:22:00,61.0,48.2,30.58,SSW,205,11.0,11.0,62,0.00,RA,OVC,0.00,Misterhouse,2013-06-24 11:22:00,
2013-06-24 04:25:00,60.3,46.4,30.58,WSW,242,11.0,11.0,58,0.00,RA,OVC,0.00,Misterhouse,2013-06-24 11:25:00,
2013-06-24 04:40:00,59.7,44.6,30.58,SSW,208,8.0,11.0,59,0.00,RA,OVC,0.00,Misterhouse,2013-06-24 11:40:00,
2013-06-24 04:47:00,61.3,48.2,30.58,SSW,205,8.0,8.0,62,0.00,RA,OVC,0.00,Misterhouse,2013-06-24 11:47:00,
2013-06-24 05:05:00,59.7,42.8,30.60,SSW,208,14.0,14.0,53,0.00,RA,OVC,0.00,Misterhouse,2013-06-24 12:05:00,
2013-06-24 05:10:00,60.1,44.6,30.60,SSW,208,11.0,13.0,56,0.00,RA,OVC,0.00,Misterhouse,2013-06-24 12:10:00,
2013-06-24 05:20:00,60.3,44.6,30.60,South,188,13.0,13.0,56,0.00,RA,OVC,0.00,Misterhouse,2013-06-24 12:20:00,
2013-06-24 05:22:00,60.8,48.2,30.58,West,261,10.0,10.0,62,0.00,RA,OVC,0.00,Misterhouse,2013-06-24 12:22:00,
2013-06-24 05:30:00,60.6,48.2,30.60,South,184,11.0,15.0,64,0.00,RA,OVC,0.00,Misterhouse,2013-06-24 12:30:00,
2013-06-24 05:32:00,60.3,46.4,30.58,SW,233,12.0,12.0,60,0.00,RA,OVC,0.00,Misterhouse,2013-06-24 12:32:00,
2013-06-24 05:47:00,59.5,44.6,30.58,SSW,198,12.0,12.0,57,0.00,RA,OVC,0.00,Misterhouse,2013-06-24 12:47:00,
2013-06-24 05:52:00,59.7,41.0,30.58,SSW,197,12.0,12.0,52,0.00,RA,OVC,0.00,Misterhouse,2013-06-24 12:52:00,
2013-06-24 05:57:00,59.9,46.4,30.58,SSW,204,11.0,13.0,57,0.00,RA,OVC,0.00,Misterhouse,2013-06-24 12:57:00,
2013-06-24 06:02:00,59.7,44.6,30.60,SE,145,13.0,13.0,58,0.00,RA,OVC,0.00,Misterhouse,2013-06-24 13:02:00,
2013-06-24 06:18:00,59.7,42.8,30.60,SSW,200,13.0,17.0,56,0.00,RA,OVC,0.00,Misterhouse,2013-06-24 13:18:00,
2013-06-24 06:27:00,59.9,44.6,30.60,SSW,203,9.0,18.0,56,0.00,RA,OVC,0.00,Misterhouse,2013-06-24 13:27:00,
2013-06-24 06:37:00,60.6,50.0,30.60,SSW,204,13.0,13.0,66,0.00,RA,OVC,0.00,Misterhouse,2013-06-24 13:37:00,
2013-06-24 06:42:00,61.5,50.0,30.60,SSE,164,10.0,13.0,68,0.00,RA,OVC,0.00,Misterhouse,2013-06-24 13:42:00,
2013-06-24 06:47:00,62.1,53.6,30.60,SW,231,7.0,9.0,72,0.00,RA,OVC,0.00,Misterhouse,2013-06-24 13:47:00,
2013-06-24 06:57:00,62.2,53.6,30.60,South,177,7.0,7.0,72,0.00,RA,OVC,0.00,Misterhouse,2013-06-24 13:57:00,
2013-06-24 07:02:00,62.2,53.6,30.60,SSE,166,9.0,11.0,71,0.00,RA,OVC,0.00,Misterhouse,2013-06-24 14:02:00,
2013-06-24 07:08:00,62.4,53.6,30.60,South,191,11.0,11.0,72,0.00,RA,OVC,0.00,Misterhouse,2013-06-24 14:08:00,
2013-06-24 07:17:00,62.8,55.4,30.60,SW,222,11.0,11.0,75,0.00,RA,OVC,0.00,Misterhouse,2013-06-24 14:17:00,
2013-06-24 07:27:00,63.3,55.4,30.60,SSE,163,13.0,15.0,79,0.00,RA,OVC,0.00,Misterhouse,2013-06-24 14:27:00,
2013-06-24 07:32:00,63.5,57.2,30.60,SSW,209,12.0,13.0,79,0.00,RA,OVC,0.00,Misterhouse,2013-06-24 14:32:00,
2013-06-24 07:42:00,63.1,53.6,30.60,SSW,209,11.0,13.0,73,0.00,RA,OVC,0.00,Misterhouse,2013-06-24 14:42:00,
2013-06-24 07:47:00,63.0,53.6,30.60,South,188,14.0,14.0,72,0.00,RA,OVC,0.00,Misterhouse,2013-06-24 14:47:00,
2013-06-24 07:57:00,63.5,57.2,30.60,SSW,208,14.0,14.0,78,0.00,RA,OVC,0.00,Misterhouse,2013-06-24 14:57:00,
2013-06-24 08:02:00,63.9,57.2,30.60,SSW,192,14.0,14.0,79,0.00,RA,OVC,0.00,Misterhouse,2013-06-24 15:02:00,
2013-06-24 08:12:00,63.5,57.2,30.60,SSW,202,8.0,13.0,77,0.00,RA,OVC,0.00,Misterhouse,2013-06-24 15:12:00,
2013-06-24 08:17:00,63.7,57.2,30.63,West,268,11.0,11.0,80,0.00,BC,SCT,0.00,Misterhouse,2013-06-24 15:17:00,
2013-06-24 08:22:00,63.7,57.2,30.63,WSW,251,14.0,14.0,80,0.00,BC,SCT,0.00,Misterhouse,2013-06-24 15:22:00,
2013-06-24 08:27:00,63.9,57.2,30.63,SSW,202,15.0,15.0,80,0.00,BC,SCT,0.00,Misterhouse,2013-06-24 15:27:00,
2013-06-24 08:32:00,63.5,57.2,30.63,SSW,192,13.0,17.0,77,0.00,BC,SCT,0.00,Misterhouse,2013-06-24 15:32:00,
2013-06-24 08:37:00,63.5,57.2,30.63,SSW,210,15.0,20.0,77,0.00,BC,SCT,0.00,Misterhouse,2013-06-24 15:37:00,
2013-06-24 08:42:00,63.7,57.2,30.63,SSE,153,14.0,14.0,79,0.00,BC,SCT,0.00,Misterhouse,2013-06-24 15:42:00,
2013-06-24 08:47:00,63.5,57.2,30.63,South,190,12.0,15.0,78,0.00,BC,SCT,0.00,Misterhouse,2013-06-24 15:47:00,
2013-06-24 08:52:00,63.9,57.2,30.63,SSW,198,11.0,13.0,80,0.00,BC,SCT,0.00,Misterhouse,2013-06-24 15:52:00,
2013-06-24 08:57:00,63.9,57.2,30.63,SSW,208,13.0,13.0,78,0.00,BC,SCT,0.00,Misterhouse,2013-06-24 15:57:00,
2013-06-24 09:02:00,63.7,57.2,30.63,SSW,196,11.0,11.0,77,0.00,BC,SCT,0.00,Misterhouse,2013-06-24 16:02:00,
2013-06-24 09:12:00,64.0,57.2,30.63,SW,221,11.0,15.0,78,0.00,BC,SCT,0.00,Misterhouse,2013-06-24 16:12:00,
2013-06-24 09:17:00,64.2,57.2,30.63,West,261,11.0,11.0,80,0.00,BC,SCT,0.00,Misterhouse,2013-06-24 16:17:00,
2013-06-24 09:22:00,64.8,59.0,30.63,SW,232,13.0,13.0,81,0.00,BC,SCT,0.00,Misterhouse,2013-06-24 16:22:00,
2013-06-24 09:27:00,64.8,59.0,30.63,SSW,212,12.0,13.0,81,0.00,BC,SCT,0.00,Misterhouse,2013-06-24 16:27:00,
2013-06-24 09:37:00,65.7,60.8,30.66,SSE,159,13.0,13.0,82,0.00,BC,SCT,0.00,Misterhouse,2013-06-24 16:37:00,
2013-06-24 09:42:00,65.7,59.0,30.66,South,190,13.0,15.0,79,0.00,BC,SCT,0.00,Misterhouse,2013-06-24 16:42:00,
2013-06-24 09:52:00,63.5,55.4,30.66,South,177,14.0,16.0,71,0.00,BC,SCT,0.00,Misterhouse,2013-06-24 16:52:00,
2013-06-24 09:57:00,63.5,55.4,30.66,South,173,12.0,15.0,70,0.00,BC,SCT,0.00,Misterhouse,2013-06-24 16:57:00,
2013-06-24 10:12:00,63.5,55.4,30.66,South,177,19.0,19.0,70,0.00,BC,SCT,0.00,Misterhouse,2013-06-24 17:12:00,
2013-06-24 10:17:00,63.0,51.8,30.66,South,174,15.0,16.0,68,0.00,BC,SCT,0.00,Misterhouse,2013-06-24 17:17:00,
2013-06-24 10:22:00,63.3,50.0,30.66,SSW,206,13.0,13.0,64,0.00,BC,SCT,0.00,Misterhouse,2013-06-24 17:22:00,
2013-06-24 10:27:00,63.0,46.4,30.66,South,184,14.0,14.0,57,0.00,BC,SCT,0.00,Misterhouse,2013-06-24 17:27:00,
2013-06-24 10:32:00,63.0,48.2,30.66,South,186,13.0,13.0,58,0.00,BC,SCT,0.00,Misterhouse,2013-06-24 17:32:00,
2013-06-24 10:37:00,63.1,48.2,30.66,South,180,14.0,14.0,59,0.00,BC,SCT,0.00,Misterhouse,2013-06-24 17:37:00,
2013-06-24 10:42:00,63.9,48.2,30.66,SW,221,9.0,11.0,57,0.00,BC,SCT,0.00,Misterhouse,2013-06-24 17:42:00,
2013-06-24 10:48:00,63.7,48.2,30.66,SW,215,11.0,15.0,54,0.00,BC,SCT,0.00,Misterhouse,2013-06-24 17:48:00,
2013-06-24 10:57:00,63.1,46.4,30.66,WSW,254,13.0,13.0,55,0.00,BC,SCT,0.00,Misterhouse,2013-06-24 17:57:00,
2013-06-24 11:02:00,63.3,44.6,30.66,WSW,255,10.0,13.0,53,0.00,BC,SCT,0.00,Misterhouse,2013-06-24 18:02:00,
2013-06-24 11:07:00,63.1,48.2,30.66,SSW,209,8.0,9.0,58,0.00,BC,SCT,0.00,Misterhouse,2013-06-24 18:07:00,
2013-06-24 11:22:00,63.3,46.4,30.66,SSW,213,12.0,21.0,57,0.00,BC,SCT,0.00,Misterhouse,2013-06-24 18:22:00,
2013-06-24 11:27:00,63.5,48.2,30.66,WSW,241,16.0,16.0,54,0.00,BC,SCT,0.00,Misterhouse,2013-06-24 18:27:00,
2013-06-24 11:32:00,64.2,48.2,30.66,SSE,164,11.0,15.0,54,0.00,BC,SCT,0.00,Misterhouse,2013-06-24 18:32:00,
2013-06-24 11:37:00,64.0,48.2,30.66,South,172,15.0,16.0,54,0.00,BC,SCT,0.00,Misterhouse,2013-06-24 18:37:00,
2013-06-24 11:42:00,64.4,46.4,30.66,South,188,15.0,15.0,52,0.00,BC,SCT,0.00,Misterhouse,2013-06-24 18:42:00,
2013-06-24 11:52:00,63.3,48.2,30.66,South,175,15.0,15.0,60,0.00,BC,SCT,0.00,Misterhouse,2013-06-24 18:52:00,
2013-06-24 11:57:00,63.5,51.8,30.66,SSW,198,16.0,16.0,64,0.00,BC,SCT,0.00,Misterhouse,2013-06-24 18:57:00,
2013-06-24 12:02:00,64.0,53.6,30.66,SE,137,14.0,17.0,68,0.00,BC,SCT,0.00,Misterhouse,2013-06-24 19:02:00,
2013-06-24 12:07:00,64.8,51.8,30.66,WSW,245,9.0,16.0,62,0.00,BC,SCT,0.00,Misterhouse,2013-06-24 19:07:00,
2013-06-24 12:12:00,64.6,48.2,30.66,West,264,11.0,11.0,57,0.00,BC,SCT,0.00,Misterhouse,2013-06-24 19:12:00,
2013-06-24 12:17:00,64.6,46.4,30.66,SW,228,10.0,15.0,53,0.00,BC,SCT,0.00,Misterhouse,2013-06-24 19:17:00,
2013-06-24 12:22:00,64.6,48.2,30.66,SSW,192,11.0,15.0,55,0.00,BC,SCT,0.00,Misterhouse,2013-06-24 19:22:00,
2013-06-24 12:27:00,64.2,48.2,30.66,South,180,14.0,14.0,54,0.00,BC,SCT,0.00,Misterhouse,2013-06-24 19:27:00,
2013-06-24 12:32:00,64.0,46.4,30.66,West,260,12.0,12.0,53,0.00,BC,SCT,0.00,Misterhouse,2013-06-24 19:32:00,
2013-06-24 12:42:00,64.6,42.8,30.66,SSE,167,11.0,17.0,47,0.00,BC,SCT,0.00,Misterhouse,2013-06-24 19:42:00,
2013-06-24 12:47:00,64.4,42.8,30.66,SSE,162,13.0,23.0,47,0.00,BC,SCT,0.00,Misterhouse,2013-06-24 19:47:00,
2013-06-24 12:52:00,64.0,42.8,30.66,South,177,13.0,16.0,47,0.00,BC,SCT,0.00,Misterhouse,2013-06-24 19:52:00,
2013-06-24 12:57:00,64.4,42.8,30.66,SSE,164,16.0,17.0,47,0.00,BC,SCT,0.00,Misterhouse,2013-06-24 19:57:00,
2013-06-24 13:02:00,65.1,42.8,30.66,SSW,192,11.0,11.0,45,0.00,BC,SCT,0.00,Misterhouse,2013-06-24 20:02:00,
2013-06-24 13:07:00,66.0,42.8,30.66,SSW,212,9.0,11.0,43,0.00,BC,SCT,0.00,Misterhouse,2013-06-24 20:07:00,
2013-06-24 13:12:00,65.3,42.8,30.66,SSW,192,13.0,13.0,44,0.00,BC,SCT,0.00,Misterhouse,2013-06-24 20:12:00,
2013-06-24 13:17:00,65.5,44.6,30.66,West,272,11.0,11.0,45,0.00,BC,SCT,0.00,Misterhouse,2013-06-24 20:17:00,
2013-06-24 13:22:00,66.0,42.8,30.66,South,183,11.0,14.0,43,0.00,BC,SCT,0.00,Misterhouse,2013-06-24 20:22:00,
2013-06-24 13:32:00,65.3,44.6,30.66,SSW,194,14.0,15.0,45,0.00,BC,SCT,0.00,Misterhouse,2013-06-24 20:32:00,
2013-06-24 13:37:00,65.5,44.6,30.66,SSW,194,15.0,15.0,45,0.00,BC,SCT,0.00,Misterhouse,2013-06-24 20:37:00,
2013-06-24 13:42:00,65.7,42.8,30.66,SSE,153,12.0,17.0,44,0.00,BC,SCT,0.00,Misterhouse,2013-06-24 20:42:00,
2013-06-24 13:47:00,65.5,44.6,30.66,SSW,195,14.0,14.0,45,0.00,BC,SCT,0.00,Misterhouse,2013-06-24 20:47:00,
2013-06-24 13:52:00,65.1,42.8,30.66,SSW,198,15.0,17.0,45,0.00,BC,SCT,0.00,Misterhouse,2013-06-24 20:52:00,
2013-06-24 13:57:00,65.7,44.6,30.66,SSW,203,11.0,13.0,46,0.00,BC,SCT,0.00,Misterhouse,2013-06-24 20:57:00,
2013-06-24 14:02:00,65.8,42.8,30.66,SSW,209,13.0,13.0,43,0.00,BC,SCT,0.00,Misterhouse,2013-06-24 21:02:00,
2013-06-24 14:07:00,66.0,44.6,30.66,SSW,202,11.0,11.0,45,0.00,BC,SCT,0.00,Misterhouse,2013-06-24 21:07:00,
2013-06-24 14:12:00,66.7,42.8,30.66,SSW,200,9.0,12.0,43,0.00,BC,SCT,0.00,Misterhouse,2013-06-24 21:12:00,
2013-06-24 14:22:00,66.7,41.0,30.66,West,264,11.0,12.0,41,0.00,BC,SCT,0.00,Misterhouse,2013-06-24 21:22:00,
2013-06-24 14:27:00,67.5,42.8,30.66,SSE,152,9.0,9.0,39,0.00,BC,SCT,0.00,Misterhouse,2013-06-24 21:27:00,
2013-06-24 14:32:00,68.0,42.8,30.66,West,265,8.0,10.0,39,0.00,BC,SCT,0.00,Misterhouse,2013-06-24 21:32:00,
2013-06-24 14:37:00,67.3,42.8,30.66,SSW,210,11.0,12.0,39,0.00,BC,SCT,0.00,Misterhouse,2013-06-24 21:37:00,
2013-06-24 14:42:00,66.9,41.0,30.66,WSW,239,10.0,10.0,41,0.00,BC,SCT,0.00,Misterhouse,2013-06-24 21:42:00,
2013-06-24 14:47:00,66.9,41.0,30.66,SSW,204,11.0,15.0,41,0.00,BC,SCT,0.00,Misterhouse,2013-06-24 21:47:00,
2013-06-24 14:52:00,67.1,44.6,30.66,South,183,12.0,12.0,42,0.00,BC,SCT,0.00,Misterhouse,2013-06-24 21:52:00,
2013-06-24 15:07:00,67.1,44.6,30.66,SSW,209,10.0,15.0,43,0.00,BC,SCT,0.00,Misterhouse,2013-06-24 22:07:00,
2013-06-24 15:12:00,66.6,42.8,30.66,SSW,203,12.0,18.0,43,0.00,BC,SCT,0.00,Misterhouse,2013-06-24 22:12:00,
2013-06-24 15:17:00,66.4,42.8,30.66,SSW,212,13.0,13.0,43,0.00,BC,SCT,0.00,Misterhouse,2013-06-24 22:17:00,
2013-06-24 15:22:00,66.2,42.8,30.66,SW,227,14.0,14.0,44,0.00,BC,SCT,0.00,Misterhouse,2013-06-24 22:22:00,
2013-06-24 15:32:00,67.8,42.8,30.66,SSW,203,9.0,13.0,41,0.00,BC,SCT,0.00,Misterhouse,2013-06-24 22:32:00,
2013-06-24 15:37:00,67.3,42.8,30.66,SSE,164,12.0,12.0,41,0.00,BC,SCT,0.00,Misterhouse,2013-06-24 22:37:00,
2013-06-24 15:52:00,67.6,44.6,30.66,SSW,200,8.0,11.0,43,0.00,BC,SCT,0.00,Misterhouse,2013-06-24 22:52:00,
2013-06-24 15:57:00,67.6,44.6,30.66,South,182,9.0,11.0,42,0.00,BC,SCT,0.00,Misterhouse,2013-06-24 22:57:00,
2013-06-24 16:02:00,68.2,42.8,30.66,SSE,168,8.0,11.0,39,0.00,BC,SCT,0.00,Misterhouse,2013-06-24 23:02:00,
2013-06-24 16:07:00,67.6,44.6,30.66,SSW,199,7.0,7.0,42,0.00,BC,SCT,0.00,Misterhouse,2013-06-24 23:07:00,
2013-06-24 16:12:00,67.5,44.6,30.66,SSW,195,8.0,13.0,43,0.00,BC,SCT,0.00,Misterhouse,2013-06-24 23:12:00,
2013-06-24 16:17:00,66.9,44.6,30.66,South,178,8.0,8.0,45,0.00,BC,SCT,0.00,Misterhouse,2013-06-24 23:17:00,
2013-06-24 16:22:00,66.6,44.6,30.66,SSE,165,11.0,11.0,46,0.00,BC,SCT,0.00,Misterhouse,2013-06-24 23:22:00,
2013-06-24 16:28:00,66.4,46.4,30.66,SSE,166,12.0,15.0,48,0.00,BC,SCT,0.00,Misterhouse,2013-06-24 23:28:00,
2013-06-24 16:37:00,66.6,44.6,30.66,SSE,152,11.0,11.0,46,0.00,BC,SCT,0.00,Misterhouse,2013-06-24 23:37:00,
2013-06-24 16:42:00,66.9,44.6,30.66,SSW,199,9.0,10.0,45,0.00,BC,SCT,0.00,Misterhouse,2013-06-24 23:42:00,
2013-06-24 16:47:00,66.7,44.6,30.66,South,169,12.0,13.0,46,0.00,BC,SCT,0.00,Misterhouse,2013-06-24 23:47:00,
2013-06-24 16:52:00,66.7,46.4,30.66,South,189,7.0,9.0,48,0.00,BC,SCT,0.00,Misterhouse,2013-06-24 23:52:00,
2013-06-24 16:57:00,66.7,44.6,30.66,SSW,213,10.0,11.0,46,0.00,BC,SCT,0.00,Misterhouse,2013-06-24 23:57:00,
2013-06-24 17:03:00,67.1,46.4,30.66,SW,220,7.0,13.0,46,0.00,BC,SCT,0.00,Misterhouse,2013-06-25 00:03:00,
2013-06-24 17:12:00,66.7,44.6,30.66,SSW,203,8.0,8.0,45,0.00,BC,SCT,0.00,Misterhouse,2013-06-25 00:12:00,
2013-06-24 17:17:00,66.2,46.4,30.66,WSW,258,9.0,9.0,48,0.00,BC,SCT,0.00,Misterhouse,2013-06-25 00:17:00,
2013-06-24 17:22:00,66.0,48.2,30.66,SSW,203,14.0,14.0,51,0.00,BC,SCT,0.00,Misterhouse,2013-06-25 00:22:00,
2013-06-24 17:32:00,66.0,50.0,30.66,SSE,157,11.0,13.0,54,0.00,BC,SCT,0.00,Misterhouse,2013-06-25 00:32:00,
2013-06-24 17:37:00,65.8,50.0,30.66,SSW,199,13.0,14.0,55,0.00,BC,SCT,0.00,Misterhouse,2013-06-25 00:37:00,
2013-06-24 17:42:00,66.4,48.2,30.66,SSW,207,11.0,11.0,53,0.00,BC,SCT,0.00,Misterhouse,2013-06-25 00:42:00,
2013-06-24 17:47:00,66.6,46.4,30.66,SW,233,10.0,10.0,50,0.00,BC,SCT,0.00,Misterhouse,2013-06-25 00:47:00,
2013-06-24 17:52:00,66.4,46.4,30.66,SSW,209,10.0,10.0,50,0.00,BC,SCT,0.00,Misterhouse,2013-06-25 00:52:00,
2013-06-24 17:58:00,66.4,46.4,30.66,WSW,255,11.0,11.0,50,0.00,BC,SCT,0.00,Misterhouse,2013-06-25 00:58:00,
2013-06-24 18:07:00,66.4,48.2,30.66,SSW,195,9.0,9.0,52,0.00,BC,SCT,0.00,Misterhouse,2013-06-25 01:07:00,
2013-06-24 18:12:00,66.2,48.2,30.66,SSW,201,11.0,14.0,52,0.00,BC,SCT,0.00,Misterhouse,2013-06-25 01:12:00,
2013-06-24 18:17:00,66.4,50.0,30.66,SSE,164,10.0,12.0,56,0.00,BC,SCT,0.00,Misterhouse,2013-06-25 01:17:00,
2013-06-24 18:22:00,66.2,50.0,30.66,SSW,206,8.0,8.0,55,0.00,BC,SCT,0.00,Misterhouse,2013-06-25 01:22:00,
2013-06-24 18:32:00,65.8,50.0,30.66,SSE,159,12.0,12.0,57,0.00,BC,SCT,0.00,Misterhouse,2013-06-25 01:32:00,
2013-06-24 18:37:00,65.8,51.8,30.66,SW,226,13.0,13.0,60,0.00,BC,SCT,0.00,Misterhouse,2013-06-25 01:37:00,
2013-06-24 18:47:00,65.8,53.6,30.66,South,180,9.0,10.0,63,0.00,BC,SCT,0.00,Misterhouse,2013-06-25 01:47:00,
2013-06-24 18:57:00,65.7,53.6,30.66,SSW,212,12.0,12.0,63,0.00,BC,SCT,0.00,Misterhouse,2013-06-25 01:57:00,
2013-06-24 19:12:00,65.8,53.6,30.66,South,176,11.0,13.0,65,0.00,BC,SCT,0.00,Misterhouse,2013-06-25 02:12:00,
2013-06-24 19:17:00,65.8,55.4,30.66,SSE,167,11.0,12.0,66,0.00,BC,SCT,0.00,Misterhouse,2013-06-25 02:17:00,
2013-06-24 19:22:00,66.0,55.4,30.66,WSW,256,8.0,9.0,66,0.00,BC,SCT,0.00,Misterhouse,2013-06-25 02:22:00,
2013-06-24 19:27:00,66.0,53.6,30.66,WSW,239,9.0,9.0,65,0.00,BC,SCT,0.00,Misterhouse,2013-06-25 02:27:00,
2013-06-24 19:32:00,65.8,53.6,30.66,SSE,157,9.0,10.0,65,0.00,BC,SCT,0.00,Misterhouse,2013-06-25 02:32:00,
2013-06-24 19:37:00,65.8,55.4,30.66,SSE,158,10.0,12.0,66,0.00,BC,SCT,0.00,Misterhouse,2013-06-25 02:37:00,
2013-06-24 19:42:00,65.8,55.4,30.66,SSW,212,8.0,13.0,67,0.00,BC,SCT,0.00,Misterhouse,2013-06-25 02:42:00,
2013-06-24 19:52:00,66.2,57.2,30.66,SSW,194,10.0,10.0,72,0.00,BC,SCT,0.00,Misterhouse,2013-06-25 02:52:00,
2013-06-24 19:57:00,66.2,57.2,30.66,SSW,194,8.0,8.0,72,0.00,BC,SCT,0.00,Misterhouse,2013-06-25 02:57:00,
2013-06-24 20:00:00,66.4,53.6,30.66,South,182,8.0,13.0,63,0.00,BC,SCT,0.00,Misterhouse,2013-06-25 03:00:00,
2013-06-24 20:02:00,66.2,57.2,30.66,South,171,8.0,8.0,73,0.00,BC,SCT,0.00,Misterhouse,2013-06-25 03:02:00,
2013-06-24 20:05:00,66.0,53.6,30.66,South,185,10.0,10.0,64,0.00,BC,SCT,0.00,Misterhouse,2013-06-25 03:05:00,
2013-06-24 20:10:00,66.2,53.6,30.66,SSW,203,11.0,13.0,65,0.00,BC,SCT,0.00,Misterhouse,2013-06-25 03:10:00,
2013-06-24 20:12:00,66.2,57.2,30.66,SW,224,11.0,12.0,72,0.00,BC,SCT,0.00,Misterhouse,2013-06-25 03:12:00,
2013-06-24 20:15:00,66.0,55.4,30.69,SSW,192,8.0,11.0,66,0.00,BC,SCT,0.00,Misterhouse,2013-06-25 03:15:00,
2013-06-24 20:20:00,66.2,55.4,30.69,South,181,12.0,15.0,66,0.00,BC,SCT,0.00,Misterhouse,2013-06-25 03:20:00,
2013-06-24 20:22:00,66.4,57.2,30.66,South,177,11.0,11.0,72,0.00,BC,SCT,0.00,Misterhouse,2013-06-25 03:22:00,
2013-06-24 20:25:00,66.0,55.4,30.69,SSW,208,10.0,11.0,66,0.00,BC,SCT,0.00,Misterhouse,2013-06-25 03:25:00,
2013-06-24 20:30:00,65.8,55.4,30.69,SSW,213,11.0,11.0,68,0.00,BC,SCT,0.00,Misterhouse,2013-06-25 03:30:00,
2013-06-24 20:33:00,66.2,57.2,30.66,SSE,160,11.0,13.0,71,0.00,BC,SCT,0.00,Misterhouse,2013-06-25 03:33:00,
2013-06-24 20:35:00,66.0,55.4,30.69,SW,221,10.0,13.0,70,0.00,BC,SCT,0.00,Misterhouse,2013-06-25 03:35:00,
2013-06-24 20:40:00,66.0,55.4,30.69,South,178,11.0,11.0,69,0.00,BC,SCT,0.00,Misterhouse,2013-06-25 03:40:00,
2013-06-24 20:43:00,66.0,55.4,30.66,SSE,149,9.0,9.0,68,0.00,BC,SCT,0.00,Misterhouse,2013-06-25 03:43:00,
2013-06-24 20:45:00,66.0,55.4,30.69,South,185,11.0,11.0,67,0.00,BC,SCT,0.00,Misterhouse,2013-06-25 03:45:00,
2013-06-24 20:50:00,65.8,55.4,30.69,SW,214,11.0,11.0,67,0.00,BC,SCT,0.00,Misterhouse,2013-06-25 03:50:00,
2013-06-24 20:52:00,66.2,55.4,30.66,SSW,193,12.0,16.0,67,0.00,BC,SCT,0.00,Misterhouse,2013-06-25 03:52:00,
2013-06-24 20:55:00,65.8,55.4,30.69,SSW,199,11.0,13.0,68,0.00,BC,SCT,0.00,Misterhouse,2013-06-25 03:55:00,
2013-06-24 20:57:00,66.4,53.6,30.66,SSW,200,9.0,10.0,65,0.00,BC,SCT,0.00,Misterhouse,2013-06-25 03:57:00,
2013-06-24 21:00:00,65.8,55.4,30.69,SSE,164,11.0,15.0,69,0.00,BC,SCT,0.00,Misterhouse,2013-06-25 04:00:00,
2013-06-24 21:05:00,65.8,55.4,30.69,WSW,247,9.0,9.0,69,0.00,BC,SCT,0.00,Misterhouse,2013-06-25 04:05:00,
2013-06-24 21:10:00,65.8,55.4,30.69,South,191,11.0,12.0,70,0.00,BC,SCT,0.00,Misterhouse,2013-06-25 04:10:00,
2013-06-24 21:15:00,65.8,57.2,30.69,SSW,205,10.0,15.0,71,0.00,BC,SCT,0.00,Misterhouse,2013-06-25 04:15:00,
2013-06-24 21:20:00,65.8,55.4,30.69,South,189,8.0,8.0,70,0.00,BC,SCT,0.00,Misterhouse,2013-06-25 04:20:00,
2013-06-24 21:25:00,65.8,55.4,30.69,SSW,197,10.0,13.0,70,0.00,BC,SCT,0.00,Misterhouse,2013-06-25 04:25:00,
2013-06-24 21:30:00,65.8,55.4,30.69,South,189,11.0,13.0,70,0.00,BC,SCT,0.00,Misterhouse,2013-06-25 04:30:00,
2013-06-24 21:35:00,65.8,55.4,30.69,SSW,213,11.0,11.0,67,0.00,BC,SCT,0.00,Misterhouse,2013-06-25 04:35:00,
2013-06-24 21:40:00,65.7,55.4,30.69,SSW,199,12.0,13.0,66,0.00,BC,SCT,0.00,Misterhouse,2013-06-25 04:40:00,
2013-06-24 21:45:00,65.5,53.6,30.69,SW,217,7.0,12.0,64,0.00,BC,SCT,0.00,Misterhouse,2013-06-25 04:45:00,
2013-06-24 21:50:00,65.5,53.6,30.69,SSW,201,10.0,10.0,63,0.00,BC,SCT,0.00,Misterhouse,2013-06-25 04:50:00,
2013-06-24 21:55:00,65.5,51.8,30.69,SSW,202,12.0,12.0,61,0.00,BC,SCT,0.00,Misterhouse,2013-06-25 04:55:00,
2013-06-24 22:00:00,65.3,51.8,30.69,SSW,208,8.0,8.0,60,0.00,BC,SCT,0.00,Misterhouse,2013-06-25 05:00:00,
2013-06-24 22:05:00,65.1,50.0,30.69,South,189,10.0,10.0,61,0.00,BC,SCT,0.00,Misterhouse,2013-06-25 05:05:00,
2013-06-24 22:10:00,65.1,50.0,30.69,SW,214,7.0,8.0,60,0.00,BC,SCT,0.00,Misterhouse,2013-06-25 05:10:00,
2013-06-24 22:15:00,64.8,50.0,30.69,SSW,204,6.0,8.0,59,0.00,BC,SCT,0.00,Misterhouse,2013-06-25 05:15:00,
2013-06-24 22:20:00,64.8,50.0,30.69,South,170,8.0,9.0,59,0.00,BC,SCT,0.00,Misterhouse,2013-06-25 05:20:00,
2013-06-24 22:25:00,64.8,48.2,30.69,SSW,211,10.0,10.0,57,0.00,BC,SCT,0.00,Misterhouse,2013-06-25 05:25:00,
2013-06-24 22:30:00,64.8,48.2,30.69,SSW,194,11.0,13.0,56,0.00,BC,SCT,0.00,Misterhouse,2013-06-25 05:30:00,
2013-06-24 22:35:00,64.6,48.2,30.69,SSW,204,11.0,11.0,56,0.00,BC,SCT,0.00,Misterhouse,2013-06-25 05:35:00,
2013-06-24 22:40:00,64.6,48.2,30.69,SSW,199,8.0,11.0,54,0.00,BC,SCT,0.00,Misterhouse,2013-06-25 05:40:00,
2013-06-24 22:45:00,64.8,46.4,30.69,SSW,200,11.0,11.0,53,0.00,BC,SCT,0.00,Misterhouse,2013-06-25 05:45:00,
2013-06-24 22:50:00,64.8,46.4,30.69,South,187,11.0,13.0,51,0.00,BC,SCT,0.00,Misterhouse,2013-06-25 05:50:00,
2013-06-24 22:55:00,64.8,44.6,30.69,South,173,13.0,13.0,50,0.00,BC,SCT,0.00,Misterhouse,2013-06-25 05:55:00,
2013-06-24 23:00:00,64.8,44.6,30.66,SSE,154,11.0,11.0,50,0.00,BC,SCT,0.00,Misterhouse,2013-06-25 06:00:00,
2013-06-24 23:05:00,64.8,46.4,30.66,South,169,10.0,11.0,51,0.00,BC,SCT,0.00,Misterhouse,2013-06-25 06:05:00,
2013-06-24 23:10:00,64.8,46.4,30.66,South,172,11.0,13.0,52,0.00,BC,SCT,0.00,Misterhouse,2013-06-25 06:10:00,
2013-06-24 23:15:00,64.6,46.4,30.66,South,182,14.0,17.0,52,0.00,BC,SCT,0.00,Misterhouse,2013-06-25 06:15:00,
2013-06-24 23:20:00,64.6,46.4,30.66,South,185,14.0,15.0,52,0.00,BC,SCT,0.00,Misterhouse,2013-06-25 06:20:00,
2013-06-24 23:25:00,64.8,44.6,30.66,South,181,14.0,14.0,50,0.00,BC,SCT,0.00,Misterhouse,2013-06-25 06:25:00,
2013-06-24 23:30:00,64.8,44.6,30.66,SSE,165,11.0,15.0,50,0.00,BC,SCT,0.00,Misterhouse,2013-06-25 06:30:00,
2013-06-24 23:35:00,64.8,44.6,30.66,South,187,13.0,13.0,50,0.00,BC,SCT,0.00,Misterhouse,2013-06-25 06:35:00,
2013-06-24 23:40:00,64.6,46.4,30.66,SSW,205,12.0,13.0,52,0.00,BC,SCT,0.00,Misterhouse,2013-06-25 06:40:00,
2013-06-24 23:45:00,64.4,46.4,30.69,SSW,210,13.0,13.0,53,0.00,BC,SCT,0.00,Misterhouse,2013-06-25 06:45:00,
2013-06-24 23:50:00,64.4,46.4,30.69,South,189,12.0,12.0,53,0.00,BC,SCT,0.00,Misterhouse,2013-06-25 06:50:00,
2013-06-24 23:55:00,64.4,46.4,30.69,South,169,12.0,12.0,53,0.00,BC,SCT,0.00,Misterhouse,2013-06-25 06:55:00,